Time;durP1;ratioP1;P1;durP2;ratioP2;P2;SDS_P1;SDS_P2;PMS_P1;PMS_P2;Temp;Humidity;BMP_temperature;BMP_pressure;BME280_temperature;BME280_humidity;BME280_pressure;Samples;Min_cycle;Max_cycle;Signal;HPM_P1;HPM_P2
2019/09/25 00:00:22;;;;;;;2.75;1.95;;;;;;;14.01;100;94657.89;;;;
2019/09/25 00:01:25;;;;;;;2.75;1.95;;;;;;;14.01;100;94657.89;;;;
2019/09/25 00:02:27;;;;;;;2.75;1.95;;;;;;;14.01;100;94657.89;;;;
2019/09/25 00:03:28;;;;;;;2.75;1.95;;;;;;;14.01;100;94657.89;;;;
2019/09/25 00:04:30;;;;;;;2.75;1.95;;;;;;;14.01;100;94657.89;;;;
2019/09/25 00:05:31;;;;;;;2.8;1.8;;;;;;;14.02;100;94645.11;;;;
2019/09/25 00:06:32;;;;;;;2.8;1.8;;;;;;;14.02;100;94645.11;;;;
2019/09/25 00:07:33;;;;;;;2.8;1.8;;;;;;;14.02;100;94645.11;;;;
2019/09/25 00:08:35;;;;;;;2.5;2;;;;;;;14.1;100;94646.75;;;;
2019/09/25 00:09:36;;;;;;;2.5;2;;;;;;;14.1;100;94646.75;;;;
2019/09/25 00:10:39;;;;;;;2.5;2;;;;;;;14.1;100;94646.75;;;;
2019/09/25 00:11:41;;;;;;;2.5;2;;;;;;;14.1;100;94646.75;;;;
2019/09/25 00:12:42;;;;;;;2.5;2;;;;;;;14.1;100;94646.75;;;;
2019/09/25 00:13:44;;;;;;;2.5;2;;;;;;;14.1;100;94646.75;;;;
2019/09/25 00:14:46;;;;;;;2.5;2;;;;;;;14.1;100;94646.75;;;;
2019/09/25 00:15:47;;;;;;;2.5;2;;;;;;;14.1;100;94646.75;;;;
2019/09/25 00:16:54;;;;;;;2.5;2;;;;;;;14.1;100;94646.75;;;;
2019/09/25 00:17:55;;;;;;;2.5;2;;;;;;;14.1;100;94646.75;;;;
2019/09/25 00:18:56;;;;;;;2.4;1.75;;;;;;;14.21;100;94660.18;;;;
2019/09/25 00:20:01;;;;;;;2.4;1.75;;;;;;;14.21;100;94660.18;;;;
2019/09/25 00:21:04;;;;;;;2.4;1.75;;;;;;;14.21;100;94660.18;;;;
2019/09/25 00:22:05;;;;;;;2.45;1.9;;;;;;;14.27;100;94656.8;;;;
2019/09/25 00:23:06;;;;;;;2.45;1.9;;;;;;;14.27;100;94656.8;;;;
2019/09/25 00:24:08;;;;;;;2.45;1.9;;;;;;;14.27;100;94656.8;;;;
2019/09/25 00:25:09;;;;;;;2.45;1.9;;;;;;;14.27;100;94656.8;;;;
2019/09/25 00:26:11;;;;;;;2.45;1.9;;;;;;;14.27;100;94656.8;;;;
2019/09/25 00:27:14;;;;;;;2.45;1.9;;;;;;;14.27;100;94656.8;;;;
2019/09/25 00:28:15;;;;;;;2.45;1.9;;;;;;;14.27;100;94656.8;;;;
2019/09/25 00:29:16;;;;;;;2.45;1.9;;;;;;;14.27;100;94656.8;;;;
2019/09/25 00:30:18;;;;;;;2.45;1.9;;;;;;;14.27;100;94656.8;;;;
2019/09/25 00:31:25;;;;;;;2.45;1.9;;;;;;;14.27;100;94656.8;;;;
2019/09/25 00:32:29;;;;;;;2.05;1.8;;;;;;;14.22;100;94659.48;;;;
2019/09/25 00:33:30;;;;;;;2.05;1.8;;;;;;;14.22;100;94659.48;;;;
2019/09/25 00:34:32;;;;;;;2.05;1.8;;;;;;;14.22;100;94659.48;;;;
2019/09/25 00:35:33;;;;;;;2.15;1.8;;;;;;;14.27;100;94658.28;;;;
2019/09/25 00:36:44;;;;;;;2.15;1.8;;;;;;;14.27;100;94658.28;;;;
2019/09/25 00:38:00;;;;;;;2.15;1.8;;;;;;;14.27;100;94658.28;;;;
2019/09/25 00:39:03;;;;;;;2.15;1.8;;;;;;;14.27;100;94658.28;;;;
2019/09/25 00:40:13;;;;;;;2.15;1.8;;;;;;;14.27;100;94658.28;;;;
2019/09/25 00:41:45;;;;;;;2.15;1.8;;;;;;;14.27;100;94658.28;;;;
2019/09/25 00:42:46;;;;;;;2.15;1.8;;;;;;;14.27;100;94658.28;;;;
2019/09/25 00:43:48;;;;;;;2.15;1.8;;;;;;;14.27;100;94658.28;;;;
2019/09/25 00:44:49;;;;;;;2.15;1.8;;;;;;;14.27;100;94658.28;;;;
2019/09/25 00:45:50;;;;;;;2.45;1.6;;;;;;;14.15;100;94640.9;;;;
2019/09/25 00:46:51;;;;;;;2.45;1.6;;;;;;;14.15;100;94640.9;;;;
2019/09/25 00:47:53;;;;;;;2.15;1.5;;;;;;;14.18;100;94641.28;;;;
2019/09/25 00:48:54;;;;;;;2.15;1.5;;;;;;;14.18;100;94641.28;;;;
2019/09/25 00:49:55;;;;;;;2.15;1.5;;;;;;;14.18;100;94641.28;;;;
2019/09/25 00:50:56;;;;;;;2.15;1.5;;;;;;;14.18;100;94641.28;;;;
2019/09/25 00:51:58;;;;;;;2.15;1.5;;;;;;;14.18;100;94641.28;;;;
2019/09/25 00:52:59;;;;;;;2.15;1.5;;;;;;;14.18;100;94641.28;;;;
2019/09/25 00:54:00;;;;;;;2.15;1.5;;;;;;;14.18;100;94641.28;;;;
2019/09/25 00:55:01;;;;;;;2.15;1.5;;;;;;;14.18;100;94641.28;;;;
2019/09/25 00:56:04;;;;;;;2.15;1.5;;;;;;;14.18;100;94641.28;;;;
2019/09/25 00:57:22;;;;;;;2.15;1.5;;;;;;;14.18;100;94641.28;;;;
2019/09/25 00:58:23;;;;;;;2.15;1.5;;;;;;;14.18;100;94641.28;;;;
2019/09/25 00:59:24;;;;;;;2.1;1.9;;;;;;;14.07;100;94637.77;;;;
2019/09/25 01:03:04;;;;;;;2.6;1.8;;;;;;;14.1;100;94634.91;;;;
2019/09/25 01:04:06;;;;;;;2.6;1.8;;;;;;;14.1;100;94634.91;;;;
2019/09/25 01:05:07;;;;;;;2.6;1.8;;;;;;;14.1;100;94634.91;;;;
2019/09/25 01:06:09;;;;;;;2.6;1.8;;;;;;;14.1;100;94634.91;;;;
2019/09/25 01:07:11;;;;;;;2.6;1.8;;;;;;;14.1;100;94634.91;;;;
2019/09/25 01:08:12;;;;;;;2.6;1.8;;;;;;;14.1;100;94634.91;;;;
2019/09/25 01:09:16;;;;;;;2.6;1.8;;;;;;;14.1;100;94634.91;;;;
2019/09/25 01:10:18;;;;;;;2.6;1.8;;;;;;;14.1;100;94634.91;;;;
2019/09/25 01:11:27;;;;;;;2.6;1.8;;;;;;;14.1;100;94634.91;;;;
2019/09/25 01:12:28;;;;;;;2;1.8;;;;;;;14.03;100;94628.16;;;;
2019/09/25 01:13:29;;;;;;;2;1.8;;;;;;;14.03;100;94628.16;;;;
2019/09/25 01:14:31;;;;;;;2.65;1.9;;;;;;;14.07;100;94630.16;;;;
2019/09/25 01:15:32;;;;;;;2.65;1.9;;;;;;;14.07;100;94630.16;;;;
2019/09/25 01:16:34;;;;;;;2.65;1.9;;;;;;;14.07;100;94630.16;;;;
2019/09/25 01:17:35;;;;;;;2.5;1.9;;;;;;;14.15;100;94630.45;;;;
2019/09/25 01:18:36;;;;;;;2.5;1.9;;;;;;;14.15;100;94630.45;;;;
2019/09/25 01:19:37;;;;;;;2.5;1.9;;;;;;;14.15;100;94630.45;;;;
2019/09/25 01:20:38;;;;;;;2.4;1.7;;;;;;;14.22;100;94629.75;;;;
2019/09/25 01:21:40;;;;;;;2.4;1.7;;;;;;;14.22;100;94629.75;;;;
2019/09/25 01:22:41;;;;;;;2.4;1.7;;;;;;;14.22;100;94629.75;;;;
2019/09/25 01:23:42;;;;;;;2.4;1.7;;;;;;;14.22;100;94629.75;;;;
2019/09/25 01:24:44;;;;;;;2.4;1.7;;;;;;;14.22;100;94629.75;;;;
2019/09/25 01:25:45;;;;;;;2.4;1.7;;;;;;;14.22;100;94629.75;;;;
2019/09/25 01:26:46;;;;;;;2.4;1.7;;;;;;;14.22;100;94629.75;;;;
2019/09/25 01:27:48;;;;;;;2.4;1.7;;;;;;;14.22;100;94629.75;;;;
2019/09/25 01:28:49;;;;;;;2.4;1.7;;;;;;;14.22;100;94629.75;;;;
2019/09/25 01:29:50;;;;;;;2.4;1.7;;;;;;;14.22;100;94629.75;;;;
2019/09/25 01:30:51;;;;;;;2.1;1.9;;;;;;;14.02;100;94635.49;;;;
2019/09/25 01:31:53;;;;;;;2.1;1.9;;;;;;;14.02;100;94635.49;;;;
2019/09/25 01:32:54;;;;;;;2.1;1.9;;;;;;;14.02;100;94635.49;;;;
2019/09/25 01:33:55;;;;;;;2.05;1.9;;;;;;;14.05;100;94634.92;;;;
2019/09/25 01:34:56;;;;;;;2.05;1.9;;;;;;;14.05;100;94634.92;;;;
2019/09/25 01:35:58;;;;;;;2.05;1.9;;;;;;;14.05;100;94634.92;;;;
2019/09/25 01:36:59;;;;;;;2.05;1.9;;;;;;;14.05;100;94634.92;;;;
2019/09/25 01:38:00;;;;;;;2.05;1.9;;;;;;;14.05;100;94634.92;;;;
2019/09/25 01:39:02;;;;;;;2.05;1.9;;;;;;;14.05;100;94634.92;;;;
2019/09/25 01:40:09;;;;;;;2.05;1.9;;;;;;;14.05;100;94634.92;;;;
2019/09/25 01:41:11;;;;;;;2.05;1.9;;;;;;;14.05;100;94634.92;;;;
2019/09/25 01:42:12;;;;;;;2.05;1.9;;;;;;;14.05;100;94634.92;;;;
2019/09/25 01:43:14;;;;;;;2.05;1.9;;;;;;;14.05;100;94634.92;;;;
2019/09/25 01:44:15;;;;;;;2.2;2;;;;;;;13.9;100;94626.4;;;;
2019/09/25 01:45:17;;;;;;;2.2;2;;;;;;;13.9;100;94626.4;;;;
2019/09/25 01:46:20;;;;;;;2.2;2;;;;;;;13.9;100;94626.4;;;;
2019/09/25 01:47:22;;;;;;;2.2;2;;;;;;;13.9;100;94626.4;;;;
2019/09/25 01:48:23;;;;;;;2.2;2;;;;;;;13.9;100;94626.4;;;;
2019/09/25 01:49:24;;;;;;;2.2;2;;;;;;;13.9;100;94626.4;;;;
2019/09/25 01:50:25;;;;;;;2.2;2;;;;;;;13.9;100;94626.4;;;;
2019/09/25 01:51:48;;;;;;;2.2;2;;;;;;;13.9;100;94626.4;;;;
2019/09/25 01:52:49;;;;;;;2.2;2;;;;;;;13.9;100;94626.4;;;;
2019/09/25 01:53:51;;;;;;;2.2;2;;;;;;;13.9;100;94626.4;;;;
2019/09/25 01:54:52;;;;;;;2.15;1.95;;;;;;;13.82;100;94619.33;;;;
2019/09/25 01:55:53;;;;;;;2.15;1.95;;;;;;;13.82;100;94619.33;;;;
2019/09/25 01:56:55;;;;;;;2.15;1.95;;;;;;;13.82;100;94619.33;;;;
2019/09/25 01:57:56;;;;;;;2.15;1.95;;;;;;;13.82;100;94619.33;;;;
2019/09/25 01:58:57;;;;;;;2.15;1.95;;;;;;;13.82;100;94619.33;;;;
2019/09/25 01:59:58;;;;;;;2.15;1.95;;;;;;;13.82;100;94619.33;;;;
2019/09/25 02:01:00;;;;;;;2.15;1.95;;;;;;;13.82;100;94619.33;;;;
2019/09/25 02:02:02;;;;;;;2.15;1.95;;;;;;;13.82;100;94619.33;;;;
2019/09/25 02:03:06;;;;;;;2.15;1.95;;;;;;;13.82;100;94619.33;;;;
2019/09/25 02:04:08;;;;;;;2.15;1.95;;;;;;;13.82;100;94619.33;;;;
2019/09/25 02:05:09;;;;;;;2.65;2.1;;;;;;;13.73;100;94634.94;;;;
2019/09/25 02:06:11;;;;;;;2.65;2.1;;;;;;;13.73;100;94634.94;;;;
2019/09/25 02:07:12;;;;;;;2.65;2.1;;;;;;;13.73;100;94634.94;;;;
2019/09/25 02:08:13;;;;;;;2.7;2.1;;;;;;;13.79;100;94642.94;;;;
2019/09/25 02:09:20;;;;;;;2.7;2.1;;;;;;;13.79;100;94642.94;;;;
2019/09/25 02:10:22;;;;;;;2.7;2.1;;;;;;;13.79;100;94642.94;;;;
2019/09/25 02:11:30;;;;;;;2.7;2.1;;;;;;;13.79;100;94642.94;;;;
2019/09/25 02:12:31;;;;;;;2.7;2.1;;;;;;;13.79;100;94642.94;;;;
2019/09/25 02:13:32;;;;;;;2.7;2.1;;;;;;;13.79;100;94642.94;;;;
2019/09/25 02:14:34;;;;;;;2.7;2.1;;;;;;;13.79;100;94642.94;;;;
2019/09/25 02:15:35;;;;;;;2.7;2.1;;;;;;;13.79;100;94642.94;;;;
2019/09/25 02:16:38;;;;;;;2.7;2.1;;;;;;;13.79;100;94642.94;;;;
2019/09/25 02:17:39;;;;;;;2.7;2.1;;;;;;;13.79;100;94642.94;;;;
2019/09/25 02:18:40;;;;;;;2.65;2.1;;;;;;;13.78;100;94637.11;;;;
2019/09/25 02:19:42;;;;;;;2.65;2.1;;;;;;;13.78;100;94637.11;;;;
2019/09/25 02:20:43;;;;;;;2.65;2.1;;;;;;;13.78;100;94637.11;;;;
2019/09/25 02:21:45;;;;;;;2.65;2.1;;;;;;;13.78;100;94637.11;;;;
2019/09/25 02:22:46;;;;;;;2.65;2.1;;;;;;;13.78;100;94637.11;;;;
2019/09/25 02:23:47;;;;;;;2.65;2.1;;;;;;;13.78;100;94637.11;;;;
2019/09/25 02:24:49;;;;;;;2.65;2.1;;;;;;;13.78;100;94637.11;;;;
2019/09/25 02:25:50;;;;;;;2.65;2.1;;;;;;;13.78;100;94637.11;;;;
2019/09/25 02:26:51;;;;;;;2.65;2.1;;;;;;;13.78;100;94637.11;;;;
2019/09/25 02:27:52;;;;;;;2.65;2.1;;;;;;;13.78;100;94637.11;;;;
2019/09/25 02:28:53;;;;;;;2.8;1.95;;;;;;;13.79;100;94634.69;;;;
2019/09/25 02:29:55;;;;;;;2.8;1.95;;;;;;;13.79;100;94634.69;;;;
2019/09/25 02:30:56;;;;;;;2.8;1.95;;;;;;;13.79;100;94634.69;;;;
2019/09/25 02:31:57;;;;;;;2.8;1.95;;;;;;;13.79;100;94634.69;;;;
2019/09/25 02:32:58;;;;;;;2.8;1.95;;;;;;;13.79;100;94634.69;;;;
2019/09/25 02:33:59;;;;;;;2.8;1.95;;;;;;;13.79;100;94634.69;;;;
2019/09/25 02:35:01;;;;;;;2.8;1.95;;;;;;;13.79;100;94634.69;;;;
2019/09/25 02:36:03;;;;;;;2.8;1.95;;;;;;;13.79;100;94634.69;;;;
2019/09/25 02:37:04;;;;;;;2.8;1.95;;;;;;;13.79;100;94634.69;;;;
2019/09/25 02:38:05;;;;;;;2.8;1.95;;;;;;;13.79;100;94634.69;;;;
2019/09/25 02:39:07;;;;;;;2.8;1.95;;;;;;;13.79;100;94634.69;;;;
2019/09/25 02:40:12;;;;;;;2.15;1.95;;;;;;;13.77;100;94649.18;;;;
2019/09/25 02:41:16;;;;;;;2.15;1.95;;;;;;;13.77;100;94649.18;;;;
2019/09/25 02:42:17;;;;;;;2.15;1.95;;;;;;;13.77;100;94649.18;;;;
2019/09/25 02:43:18;;;;;;;2.15;1.95;;;;;;;13.77;100;94649.18;;;;
2019/09/25 02:44:19;;;;;;;2.15;1.95;;;;;;;13.77;100;94649.18;;;;
2019/09/25 02:45:21;;;;;;;2.15;1.95;;;;;;;13.77;100;94649.18;;;;
2019/09/25 02:46:23;;;;;;;2.15;1.95;;;;;;;13.77;100;94649.18;;;;
2019/09/25 02:47:24;;;;;;;2.15;1.95;;;;;;;13.77;100;94649.18;;;;
2019/09/25 02:48:26;;;;;;;2.15;1.95;;;;;;;13.77;100;94649.18;;;;
2019/09/25 02:49:27;;;;;;;2.15;1.95;;;;;;;13.77;100;94649.18;;;;
2019/09/25 02:50:28;;;;;;;2.1;1.9;;;;;;;13.81;100;94642.13;;;;
2019/09/25 02:51:30;;;;;;;2.1;1.9;;;;;;;13.81;100;94642.13;;;;
2019/09/25 02:52:31;;;;;;;2.1;1.9;;;;;;;13.81;100;94642.13;;;;
2019/09/25 02:53:32;;;;;;;2.1;1.9;;;;;;;13.81;100;94642.13;;;;
2019/09/25 02:54:34;;;;;;;2.1;1.9;;;;;;;13.81;100;94642.13;;;;
2019/09/25 02:55:35;;;;;;;2.1;1.9;;;;;;;13.81;100;94642.13;;;;
2019/09/25 02:56:39;;;;;;;2.1;1.9;;;;;;;13.81;100;94642.13;;;;
2019/09/25 02:57:40;;;;;;;2.1;1.9;;;;;;;13.81;100;94642.13;;;;
2019/09/25 02:58:41;;;;;;;2.1;1.9;;;;;;;13.81;100;94642.13;;;;
2019/09/25 02:59:42;;;;;;;2.1;1.9;;;;;;;13.81;100;94642.13;;;;
2019/09/25 03:00:43;;;;;;;2.3;1.9;;;;;;;13.8;100;94648.66;;;;
2019/09/25 03:02:01;;;;;;;2.3;1.9;;;;;;;13.8;100;94648.66;;;;
2019/09/25 03:03:03;;;;;;;2.3;1.9;;;;;;;13.8;100;94648.66;;;;
2019/09/25 03:04:04;;;;;;;2.3;1.9;;;;;;;13.8;100;94648.66;;;;
2019/09/25 03:05:05;;;;;;;2.3;1.9;;;;;;;13.8;100;94648.66;;;;
2019/09/25 03:06:08;;;;;;;2.3;1.9;;;;;;;13.8;100;94648.66;;;;
2019/09/25 03:07:09;;;;;;;2.3;1.9;;;;;;;13.8;100;94648.66;;;;
2019/09/25 03:08:10;;;;;;;2.3;1.9;;;;;;;13.8;100;94648.66;;;;
2019/09/25 03:09:12;;;;;;;2.3;1.9;;;;;;;13.8;100;94648.66;;;;
2019/09/25 03:10:13;;;;;;;2.3;1.9;;;;;;;13.8;100;94648.66;;;;
2019/09/25 03:11:15;;;;;;;2.05;1.85;;;;;;;13.85;100;94643.64;;;;
2019/09/25 03:12:16;;;;;;;2.05;1.85;;;;;;;13.85;100;94643.64;;;;
2019/09/25 03:13:17;;;;;;;2.05;1.85;;;;;;;13.85;100;94643.64;;;;
2019/09/25 03:14:18;;;;;;;2.05;1.85;;;;;;;13.85;100;94643.64;;;;
2019/09/25 03:15:20;;;;;;;2.05;1.85;;;;;;;13.85;100;94643.64;;;;
2019/09/25 03:16:21;;;;;;;2.05;1.85;;;;;;;13.85;100;94643.64;;;;
2019/09/25 03:17:22;;;;;;;2.05;1.85;;;;;;;13.85;100;94643.64;;;;
2019/09/25 03:18:24;;;;;;;2.05;1.85;;;;;;;13.85;100;94643.64;;;;
2019/09/25 03:19:25;;;;;;;2.05;1.85;;;;;;;13.85;100;94643.64;;;;
2019/09/25 03:20:26;;;;;;;2.05;1.85;;;;;;;13.85;100;94643.64;;;;
2019/09/25 03:21:28;;;;;;;2.05;1.85;;;;;;;13.85;100;94643.64;;;;
2019/09/25 03:22:29;;;;;;;2.95;1.8;;;;;;;13.84;100;94651.08;;;;
2019/09/25 03:23:30;;;;;;;2.95;1.8;;;;;;;13.84;100;94651.08;;;;
2019/09/25 03:24:31;;;;;;;2.95;1.8;;;;;;;13.84;100;94651.08;;;;
2019/09/25 03:25:32;;;;;;;2.95;1.8;;;;;;;13.84;100;94651.08;;;;
2019/09/25 03:26:35;;;;;;;2.95;1.8;;;;;;;13.84;100;94651.08;;;;
2019/09/25 03:27:37;;;;;;;2.95;1.8;;;;;;;13.84;100;94651.08;;;;
2019/09/25 03:28:38;;;;;;;2.95;1.8;;;;;;;13.84;100;94651.08;;;;
2019/09/25 03:29:57;;;;;;;2.95;1.8;;;;;;;13.84;100;94651.08;;;;
2019/09/25 03:30:59;;;;;;;2.95;1.8;;;;;;;13.84;100;94651.08;;;;
2019/09/25 03:32:00;;;;;;;2.95;1.8;;;;;;;13.84;100;94651.08;;;;
2019/09/25 03:33:02;;;;;;;2.75;1.9;;;;;;;13.89;100;94642.97;;;;
2019/09/25 03:34:03;;;;;;;2.75;1.9;;;;;;;13.89;100;94642.97;;;;
2019/09/25 03:35:04;;;;;;;2.75;1.9;;;;;;;13.89;100;94642.97;;;;
2019/09/25 03:36:08;;;;;;;2.75;1.9;;;;;;;13.89;100;94642.97;;;;
2019/09/25 03:37:09;;;;;;;2.75;1.9;;;;;;;13.89;100;94642.97;;;;
2019/09/25 03:38:10;;;;;;;2.75;1.9;;;;;;;13.89;100;94642.97;;;;
2019/09/25 03:39:11;;;;;;;2.75;1.9;;;;;;;13.89;100;94642.97;;;;
2019/09/25 03:40:12;;;;;;;2.75;1.9;;;;;;;13.89;100;94642.97;;;;
2019/09/25 03:41:14;;;;;;;2.75;1.9;;;;;;;13.89;100;94642.97;;;;
2019/09/25 03:42:22;;;;;;;2.75;1.9;;;;;;;13.89;100;94642.97;;;;
2019/09/25 03:43:23;;;;;;;4.05;2;;;;;;;13.84;100;94644.17;;;;
2019/09/25 03:44:24;;;;;;;4.05;2;;;;;;;13.84;100;94644.17;;;;
2019/09/25 03:45:26;;;;;;;4.05;2;;;;;;;13.84;100;94644.17;;;;
2019/09/25 03:46:29;;;;;;;4.05;2;;;;;;;13.84;100;94644.17;;;;
2019/09/25 03:47:30;;;;;;;4.05;2;;;;;;;13.84;100;94644.17;;;;
2019/09/25 03:48:31;;;;;;;4.05;2;;;;;;;13.84;100;94644.17;;;;
2019/09/25 03:49:32;;;;;;;4.05;2;;;;;;;13.84;100;94644.17;;;;
2019/09/25 03:50:34;;;;;;;4.05;2;;;;;;;13.84;100;94644.17;;;;
2019/09/25 03:51:36;;;;;;;4.05;2;;;;;;;13.84;100;94644.17;;;;
2019/09/25 03:52:37;;;;;;;4.05;2;;;;;;;13.84;100;94644.17;;;;
2019/09/25 03:53:38;;;;;;;3.1;1.85;;;;;;;13.86;100;94641.6;;;;
2019/09/25 03:54:39;;;;;;;3.1;1.85;;;;;;;13.86;100;94641.6;;;;
2019/09/25 03:55:40;;;;;;;3.1;1.85;;;;;;;13.86;100;94641.6;;;;
2019/09/25 03:56:42;;;;;;;3.1;1.85;;;;;;;13.86;100;94641.6;;;;
2019/09/25 03:57:43;;;;;;;3.1;1.85;;;;;;;13.86;100;94641.6;;;;
2019/09/25 03:58:44;;;;;;;3.1;1.85;;;;;;;13.86;100;94641.6;;;;
2019/09/25 03:59:45;;;;;;;3.1;1.85;;;;;;;13.86;100;94641.6;;;;
2019/09/25 04:01:54;;;;;;;3.1;1.85;;;;;;;13.86;100;94641.6;;;;
2019/09/25 04:02:56;;;;;;;3.1;1.85;;;;;;;13.86;100;94641.6;;;;
2019/09/25 04:03:57;;;;;;;3.1;1.85;;;;;;;13.86;100;94641.6;;;;
2019/09/25 04:04:58;;;;;;;3.95;2.1;;;;;;;13.8;100;94629.52;;;;
2019/09/25 04:05:59;;;;;;;3.95;2.1;;;;;;;13.8;100;94629.52;;;;
2019/09/25 04:07:00;;;;;;;3.95;2.1;;;;;;;13.8;100;94629.52;;;;
2019/09/25 04:08:02;;;;;;;3.95;2.1;;;;;;;13.8;100;94629.52;;;;
2019/09/25 04:09:03;;;;;;;3.95;2.1;;;;;;;13.8;100;94629.52;;;;
2019/09/25 04:10:07;;;;;;;3.95;2.1;;;;;;;13.8;100;94629.52;;;;
2019/09/25 04:11:09;;;;;;;3.95;2.1;;;;;;;13.8;100;94629.52;;;;
2019/09/25 04:12:10;;;;;;;3.95;2.1;;;;;;;13.8;100;94629.52;;;;
2019/09/25 04:13:11;;;;;;;3.95;2.1;;;;;;;13.8;100;94629.52;;;;
2019/09/25 04:14:13;;;;;;;3.95;2.1;;;;;;;13.8;100;94629.52;;;;
2019/09/25 04:15:14;;;;;;;3.2;2.25;;;;;;;13.77;100;94636.84;;;;
2019/09/25 04:16:15;;;;;;;3.2;2.25;;;;;;;13.77;100;94636.84;;;;
2019/09/25 04:17:16;;;;;;;3.2;2.25;;;;;;;13.77;100;94636.84;;;;
2019/09/25 04:18:18;;;;;;;3.2;2.25;;;;;;;13.77;100;94636.84;;;;
2019/09/25 04:19:19;;;;;;;3.2;2.25;;;;;;;13.77;100;94636.84;;;;
2019/09/25 04:20:20;;;;;;;3.2;2.25;;;;;;;13.77;100;94636.84;;;;
2019/09/25 04:21:21;;;;;;;3.2;2.25;;;;;;;13.77;100;94636.84;;;;
2019/09/25 04:22:22;;;;;;;3.2;2.25;;;;;;;13.77;100;94636.84;;;;
2019/09/25 04:23:23;;;;;;;3.2;2.25;;;;;;;13.77;100;94636.84;;;;
2019/09/25 04:24:25;;;;;;;3.2;2.25;;;;;;;13.77;100;94636.84;;;;
2019/09/25 04:25:26;;;;;;;3.2;2.25;;;;;;;13.77;100;94636.84;;;;
2019/09/25 04:26:27;;;;;;;3.2;2.25;;;;;;;13.77;100;94636.84;;;;
2019/09/25 04:27:28;;;;;;;3.2;2.25;;;;;;;13.77;100;94636.84;;;;
2019/09/25 04:28:30;;;;;;;3.2;2.25;;;;;;;13.77;100;94636.84;;;;
2019/09/25 04:29:31;;;;;;;3.2;2.25;;;;;;;13.77;100;94636.84;;;;
2019/09/25 04:30:32;;;;;;;3.2;2.25;;;;;;;13.77;100;94636.84;;;;
2019/09/25 04:31:33;;;;;;;3.2;2.25;;;;;;;13.77;100;94636.84;;;;
2019/09/25 04:32:35;;;;;;;3.2;2.25;;;;;;;13.77;100;94636.84;;;;
2019/09/25 04:33:36;;;;;;;3.2;2.25;;;;;;;13.77;100;94636.84;;;;
2019/09/25 04:34:37;;;;;;;3.2;2.25;;;;;;;13.77;100;94636.84;;;;
2019/09/25 04:35:38;;;;;;;3.2;2.25;;;;;;;13.77;100;94636.84;;;;
2019/09/25 04:36:40;;;;;;;3.65;2.15;;;;;;;13.7;100;94647.69;;;;
2019/09/25 04:37:41;;;;;;;3.65;2.15;;;;;;;13.7;100;94647.69;;;;
2019/09/25 04:38:42;;;;;;;3.65;2.15;;;;;;;13.7;100;94647.69;;;;
2019/09/25 04:39:43;;;;;;;3.65;2.15;;;;;;;13.7;100;94647.69;;;;
2019/09/25 04:40:44;;;;;;;3.65;2.15;;;;;;;13.7;100;94647.69;;;;
2019/09/25 04:41:45;;;;;;;3.65;2.15;;;;;;;13.7;100;94647.69;;;;
2019/09/25 04:42:47;;;;;;;3.65;2.15;;;;;;;13.7;100;94647.69;;;;
2019/09/25 04:43:48;;;;;;;3.65;2.15;;;;;;;13.7;100;94647.69;;;;
2019/09/25 04:44:49;;;;;;;3.65;2.15;;;;;;;13.7;100;94647.69;;;;
2019/09/25 04:45:50;;;;;;;3.65;2.15;;;;;;;13.7;100;94647.69;;;;
2019/09/25 04:46:51;;;;;;;3.65;2.15;;;;;;;13.7;100;94647.69;;;;
2019/09/25 04:47:52;;;;;;;2.95;2.15;;;;;;;13.57;100;94649.45;;;;
2019/09/25 04:48:53;;;;;;;2.95;2.15;;;;;;;13.57;100;94649.45;;;;
2019/09/25 04:49:54;;;;;;;2.95;2.15;;;;;;;13.57;100;94649.45;;;;
2019/09/25 04:50:56;;;;;;;2.95;2.15;;;;;;;13.57;100;94649.45;;;;
2019/09/25 04:51:57;;;;;;;2.95;2.15;;;;;;;13.57;100;94649.45;;;;
2019/09/25 04:52:58;;;;;;;2.95;2.15;;;;;;;13.57;100;94649.45;;;;
2019/09/25 04:53:59;;;;;;;2.95;2.15;;;;;;;13.57;100;94649.45;;;;
2019/09/25 04:55:00;;;;;;;2.95;2.15;;;;;;;13.57;100;94649.45;;;;
2019/09/25 04:56:02;;;;;;;2.95;2.15;;;;;;;13.57;100;94649.45;;;;
2019/09/25 04:57:03;;;;;;;2.95;2.15;;;;;;;13.57;100;94649.45;;;;
2019/09/25 04:58:04;;;;;;;7.15;2.3;;;;;;;13.53;100;94647.94;;;;
2019/09/25 04:59:05;;;;;;;7.15;2.3;;;;;;;13.53;100;94647.94;;;;
2019/09/25 05:00:06;;;;;;;7.15;2.3;;;;;;;13.53;100;94647.94;;;;
2019/09/25 05:01:08;;;;;;;7.15;2.3;;;;;;;13.53;100;94647.94;;;;
2019/09/25 05:02:09;;;;;;;7.15;2.3;;;;;;;13.53;100;94647.94;;;;
2019/09/25 05:03:11;;;;;;;7.15;2.3;;;;;;;13.53;100;94647.94;;;;
2019/09/25 05:04:12;;;;;;;7.15;2.3;;;;;;;13.53;100;94647.94;;;;
2019/09/25 05:05:13;;;;;;;7.15;2.3;;;;;;;13.53;100;94647.94;;;;
2019/09/25 05:06:15;;;;;;;7.15;2.3;;;;;;;13.53;100;94647.94;;;;
2019/09/25 05:07:16;;;;;;;7.15;2.3;;;;;;;13.53;100;94647.94;;;;
2019/09/25 05:08:17;;;;;;;4.95;2.1;;;;;;;13.45;100;94645.37;;;;
2019/09/25 05:09:18;;;;;;;4.95;2.1;;;;;;;13.45;100;94645.37;;;;
2019/09/25 05:10:19;;;;;;;4.95;2.1;;;;;;;13.45;100;94645.37;;;;
2019/09/25 05:11:21;;;;;;;4.95;2.1;;;;;;;13.45;100;94645.37;;;;
2019/09/25 05:12:22;;;;;;;4.95;2.1;;;;;;;13.45;100;94645.37;;;;
2019/09/25 05:13:23;;;;;;;4.95;2.1;;;;;;;13.45;100;94645.37;;;;
2019/09/25 05:14:24;;;;;;;4.95;2.1;;;;;;;13.45;100;94645.37;;;;
2019/09/25 05:15:26;;;;;;;4.95;2.1;;;;;;;13.45;100;94645.37;;;;
2019/09/25 05:16:28;;;;;;;4.95;2.1;;;;;;;13.45;100;94645.37;;;;
2019/09/25 05:17:29;;;;;;;4.95;2.1;;;;;;;13.45;100;94645.37;;;;
2019/09/25 05:18:30;;;;;;;4.95;2.1;;;;;;;13.45;100;94645.37;;;;
2019/09/25 05:19:31;;;;;;;3.95;2.6;;;;;;;13.45;100;94648.91;;;;
2019/09/25 05:20:32;;;;;;;3.95;2.6;;;;;;;13.45;100;94648.91;;;;
2019/09/25 05:21:34;;;;;;;3.95;2.6;;;;;;;13.45;100;94648.91;;;;
2019/09/25 05:22:35;;;;;;;3.95;2.6;;;;;;;13.45;100;94648.91;;;;
2019/09/25 05:23:36;;;;;;;3.95;2.6;;;;;;;13.45;100;94648.91;;;;
2019/09/25 05:24:37;;;;;;;3.95;2.6;;;;;;;13.45;100;94648.91;;;;
2019/09/25 05:25:38;;;;;;;3.95;2.6;;;;;;;13.45;100;94648.91;;;;
2019/09/25 05:26:40;;;;;;;3.95;2.6;;;;;;;13.45;100;94648.91;;;;
2019/09/25 05:27:41;;;;;;;3.95;2.6;;;;;;;13.45;100;94648.91;;;;
2019/09/25 05:28:42;;;;;;;3.95;2.6;;;;;;;13.45;100;94648.91;;;;
2019/09/25 05:29:43;;;;;;;5.900001;2.4;;;;;;;13.45;100;94655.8;;;;
2019/09/25 05:30:44;;;;;;;5.900001;2.4;;;;;;;13.45;100;94655.8;;;;
2019/09/25 05:31:46;;;;;;;5.900001;2.4;;;;;;;13.45;100;94655.8;;;;
2019/09/25 05:32:47;;;;;;;5.900001;2.4;;;;;;;13.45;100;94655.8;;;;
2019/09/25 05:33:48;;;;;;;5.900001;2.4;;;;;;;13.45;100;94655.8;;;;
2019/09/25 05:34:49;;;;;;;5.900001;2.4;;;;;;;13.45;100;94655.8;;;;
2019/09/25 05:35:50;;;;;;;5.900001;2.4;;;;;;;13.45;100;94655.8;;;;
2019/09/25 05:36:52;;;;;;;5.900001;2.4;;;;;;;13.45;100;94655.8;;;;
2019/09/25 05:37:53;;;;;;;5.900001;2.4;;;;;;;13.45;100;94655.8;;;;
2019/09/25 05:38:54;;;;;;;5.900001;2.4;;;;;;;13.45;100;94655.8;;;;
2019/09/25 05:39:55;;;;;;;5.900001;2.4;;;;;;;13.45;100;94655.8;;;;
2019/09/25 05:40:57;;;;;;;4.849999;2.15;;;;;;;13.49;100;94656.34;;;;
2019/09/25 05:41:58;;;;;;;4.849999;2.15;;;;;;;13.49;100;94656.34;;;;
2019/09/25 05:42:59;;;;;;;4.849999;2.15;;;;;;;13.49;100;94656.34;;;;
2019/09/25 05:44:00;;;;;;;4.849999;2.15;;;;;;;13.49;100;94656.34;;;;
2019/09/25 05:45:01;;;;;;;4.849999;2.15;;;;;;;13.49;100;94656.34;;;;
2019/09/25 05:46:04;;;;;;;4.849999;2.15;;;;;;;13.49;100;94656.34;;;;
2019/09/25 05:47:05;;;;;;;4.849999;2.15;;;;;;;13.49;100;94656.34;;;;
2019/09/25 05:48:07;;;;;;;4.849999;2.15;;;;;;;13.49;100;94656.34;;;;
2019/09/25 05:49:08;;;;;;;4.849999;2.15;;;;;;;13.49;100;94656.34;;;;
2019/09/25 05:50:09;;;;;;;4.849999;2.15;;;;;;;13.49;100;94656.34;;;;
2019/09/25 05:51:11;;;;;;;7.199999;2.8;;;;;;;13.52;100;94656.76;;;;
2019/09/25 05:52:13;;;;;;;7.199999;2.8;;;;;;;13.52;100;94656.76;;;;
2019/09/25 05:53:14;;;;;;;7.199999;2.8;;;;;;;13.52;100;94656.76;;;;
2019/09/25 05:54:15;;;;;;;7.199999;2.8;;;;;;;13.52;100;94656.76;;;;
2019/09/25 05:55:16;;;;;;;7.199999;2.8;;;;;;;13.52;100;94656.76;;;;
2019/09/25 05:56:18;;;;;;;7.199999;2.8;;;;;;;13.52;100;94656.76;;;;
2019/09/25 05:57:20;;;;;;;7.199999;2.8;;;;;;;13.52;100;94656.76;;;;
2019/09/25 05:58:21;;;;;;;7.199999;2.8;;;;;;;13.52;100;94656.76;;;;
2019/09/25 05:59:22;;;;;;;7.199999;2.8;;;;;;;13.52;100;94656.76;;;;
2019/09/25 06:00:23;;;;;;;7.199999;2.8;;;;;;;13.52;100;94656.76;;;;
2019/09/25 06:01:26;;;;;;;8.799998;2.6;;;;;;;13.62;100;94662.6;;;;
2019/09/25 06:02:27;;;;;;;8.799998;2.6;;;;;;;13.62;100;94662.6;;;;
2019/09/25 06:03:28;;;;;;;8.799998;2.6;;;;;;;13.62;100;94662.6;;;;
2019/09/25 06:04:30;;;;;;;8.799998;2.6;;;;;;;13.62;100;94662.6;;;;
2019/09/25 06:05:31;;;;;;;8.799998;2.6;;;;;;;13.62;100;94662.6;;;;
2019/09/25 06:06:32;;;;;;;8.799998;2.6;;;;;;;13.62;100;94662.6;;;;
2019/09/25 06:07:34;;;;;;;8.799998;2.6;;;;;;;13.62;100;94662.6;;;;
2019/09/25 06:08:35;;;;;;;8.799998;2.6;;;;;;;13.62;100;94662.6;;;;
2019/09/25 06:09:36;;;;;;;8.799998;2.6;;;;;;;13.62;100;94662.6;;;;
2019/09/25 06:10:37;;;;;;;8.799998;2.6;;;;;;;13.62;100;94662.6;;;;
2019/09/25 06:11:39;;;;;;;8.799998;2.6;;;;;;;13.62;100;94662.6;;;;
2019/09/25 06:12:40;;;;;;;7.650001;2.7;;;;;;;13.69;100;94664.5;;;;
2019/09/25 06:13:41;;;;;;;7.650001;2.7;;;;;;;13.69;100;94664.5;;;;
2019/09/25 06:14:42;;;;;;;7.650001;2.7;;;;;;;13.69;100;94664.5;;;;
2019/09/25 06:15:43;;;;;;;7.650001;2.7;;;;;;;13.69;100;94664.5;;;;
2019/09/25 06:16:45;;;;;;;7.650001;2.7;;;;;;;13.69;100;94664.5;;;;
2019/09/25 06:17:46;;;;;;;7.650001;2.7;;;;;;;13.69;100;94664.5;;;;
2019/09/25 06:18:47;;;;;;;7.650001;2.7;;;;;;;13.69;100;94664.5;;;;
2019/09/25 06:19:48;;;;;;;7.650001;2.7;;;;;;;13.69;100;94664.5;;;;
2019/09/25 06:20:49;;;;;;;7.650001;2.7;;;;;;;13.69;100;94664.5;;;;
2019/09/25 06:21:51;;;;;;;7.650001;2.7;;;;;;;13.69;100;94664.5;;;;
2019/09/25 06:22:52;;;;;;;3.6;2.25;;;;;;;13.9;100;94658.15;;;;
2019/09/25 06:23:53;;;;;;;3.6;2.25;;;;;;;13.9;100;94658.15;;;;
2019/09/25 06:24:54;;;;;;;3.6;2.25;;;;;;;13.9;100;94658.15;;;;
2019/09/25 06:25:56;;;;;;;3.6;2.25;;;;;;;13.9;100;94658.15;;;;